191019 - Making Strides 5K

Overall Finish List

October 19, 2019


Results By Kyle Ray of Run Houston Timing http://runhoustontiming.net/

5K

Place Name City Bib No Gender Time Back Chip Time Gun Time Pace
1 Joe Huyett 38 M   18:36.6 18:37.1 6:00/M
2 Jason Lovejoy 64 M 0:32.0 19:09.1 19:09.1 6:11/M
3 Joslin Sellers 56 F   19:13.9 19:14.8 6:12/M
4 Travis Berres 51 M 1:28.1 20:03.9 20:05.2 6:28/M
5 Jonathan Owens 7 M 1:32.4 20:08.4 20:09.5 6:30/M
6 Tom Berres 50 M 2:37.4 21:13.2 21:14.6 6:51/M
7 Catherine Madden 37 F 2:05.1 21:18.1 21:20.0 6:52/M
8 Bryce Dunahoe 57 M 3:42.3 22:19.4 22:19.4 7:12/M
9 Eric Mendoza 68 M 3:43.2 22:19.4 22:20.3 7:12/M
10 Gary Deese 35 M 3:51.0 22:25.7 22:28.2 7:14/M
11 Paisley Laing 66 F 3:26.3 22:39.9 22:41.1 7:19/M
12 SEBASTIAN WAGNER 10 M 4:05.1 22:42.3 22:42.3 7:19/M
13 Serapio Rodriguez 67 M 4:21.3 22:57.3 22:58.4 7:24/M
14 Josh Morales 69 M 5:00.2 23:33.9 23:37.3 7:36/M
15 Logan Green 70 M 5:48.2 24:22.4 24:25.3 7:52/M
16 Sarah Mikkelsen 22 F 6:11.3 25:22.2 25:26.2 8:11/M
17 JASON WAGNER 11 M 7:04.6 25:39.6 25:41.7 8:17/M
18 David Jones 31 M 7:19.9 25:56.1 25:57.1 8:22/M
19 Kevin Reed 8 M 7:46.0 26:20.8 26:23.1 8:30/M
20 Melanie Holland 1 F 7:09.3 26:22.7 26:24.1 8:31/M
21 Shana Collier 39 F 8:28.6 27:39.0 27:43.4 8:55/M
22 Olivia Zeig 92 F 9:03.6 28:17.3 28:18.4 9:08/M
23 Carmen Story 23 F 9:24.9 28:34.9 28:39.8 9:13/M
24 John Cross 28 M 10:10.0 28:41.7 28:47.1 9:15/M
25 Farren Morris 136 F 10:41.9 27:34.8 29:56.7 8:54/M
26 John Saladin 58 M 11:23.1 29:55.0 30:00.2 9:39/M
27 Jessica Ripka 36 F 11:13.6 30:23.9 30:28.4 9:48/M
28 Jacob Messina 65 M 12:32.9 31:09.9 31:10.1 10:03/M
29 Jasmine Mayabb 46 F 12:44.8 31:57.8 31:59.7 10:19/M
30 Cathy Cross 29 F 13:26.0 32:35.4 32:40.8 10:31/M
31 Ivy Mejia 16 F 14:18.3 33:30.5 33:33.2 10:49/M
32 Cullen Bordages 30 M 15:41.5 34:13.8 34:18.6 11:03/M
33 Cadence Smith 61 M 15:42.2 34:13.4 34:19.4 11:02/M
34 Mary Nelson 15 F 15:20.1 34:31.5 34:34.9 11:08/M
35 Iris Farias 60 M 16:08.5 34:39.2 34:45.7 11:11/M
36 Laurine Hartman 34 F 17:32.0 36:37.7 36:46.8 11:49/M
37 Mike Moss 6 M 18:22.4 36:53.7 36:59.6 11:54/M
38 Lyndsey Brady 20 F 17:53.4 37:04.6 37:08.2 11:58/M
39 Lindsey Parish 117 F 18:11.5 37:22.1 37:26.4 12:03/M
40 Cambrie Pratt 33 F 19:09.0 38:16.8 38:23.9 12:21/M
41 Spandana Pasumarthi 9 F 20:48.6 39:58.4 40:03.5 12:54/M
42 Martha Miles 27 F 21:29.7 40:36.8 40:44.5 13:06/M
43 Fatima Douglas 49 F 21:30.0 40:37.0 40:44.8 13:06/M
44 Florencie Lorre 71 F 24:51.6 43:55.5 44:06.4 14:10/M
45 Lisa Puller 72 F 24:52.1 43:55.3 44:07.0 14:10/M
46 Cindy Copeland 59 F 33:29.7 52:35.0 52:44.6 16:58/M
47 Alexis Godeaux 54 F 35:07.7 54:16.8 54:22.6 17:31/M
48 Jadalyn Montgomery 63 F 35:11.1 54:20.6 54:25.9 17:32/M
49 Misty Montgomery 62 F 35:32.3 54:33.3 54:47.2 17:36/M
50 Miranda Martin 53 F 35:33.6 54:34.8 54:48.4 17:36/M